createdAt,value
2022-09-12T00:00:52.915Z,13.60
2022-09-12T00:05:57.587Z,13.70
2022-09-12T00:11:06.131Z,13.60
2022-09-12T00:16:09.689Z,13.60
2022-09-12T00:21:15.010Z,16.80
2022-09-12T00:26:19.033Z,13.60
2022-09-12T00:31:25.043Z,13.60
2022-09-12T00:36:33.254Z,13.60
2022-09-12T00:41:39.454Z,13.40
2022-09-12T00:46:47.250Z,13.40
2022-09-12T00:51:56.464Z,13.30
2022-09-12T00:57:05.987Z,13.30
2022-09-12T01:02:10.537Z,13.20
2022-09-12T01:07:16.188Z,13.20
2022-09-12T01:12:19.717Z,13.60
2022-09-12T01:17:24.834Z,13.20
2022-09-12T01:22:47.868Z,13.30
2022-09-12T01:28:08.190Z,13.20
2022-09-12T01:33:50.092Z,13.00
2022-09-12T01:39:01.481Z,16.20
2022-09-12T01:44:11.302Z,12.60
2022-09-12T01:49:21.547Z,12.40
2022-09-12T01:54:31.870Z,12.30
2022-09-12T01:59:38.317Z,12.20
2022-09-12T02:04:48.814Z,12.20
2022-09-12T02:09:58.134Z,12.10
2022-09-12T02:15:06.226Z,11.90
2022-09-12T02:20:25.975Z,12.00
2022-09-12T02:25:44.087Z,12.00
2022-09-12T02:30:53.069Z,11.90
2022-09-12T02:36:03.434Z,11.90
2022-09-12T02:41:07.389Z,11.90
2022-09-12T02:46:16.328Z,11.60
2022-09-12T02:51:23.638Z,11.80
2022-09-12T02:56:29.678Z,11.70
2022-09-12T03:01:51.284Z,11.60
2022-09-12T03:07:07.787Z,11.60
2022-09-12T03:12:21.525Z,11.50
2022-09-12T03:17:31.604Z,11.40
2022-09-12T03:22:51.045Z,11.20
2022-09-12T03:27:59.841Z,11.20
2022-09-12T03:33:03.074Z,11.20
2022-09-12T03:38:08.193Z,11.00
2022-09-12T03:43:12.303Z,11.00
2022-09-12T03:48:15.514Z,15.30
2022-09-12T03:53:20.179Z,10.90
2022-09-12T03:58:23.508Z,10.90
2022-09-12T04:03:26.810Z,10.80
2022-09-12T04:08:31.426Z,10.80
2022-09-12T04:13:35.732Z,8.20
2022-09-12T04:18:39.605Z,11.00
2022-09-12T04:23:44.980Z,11.10
2022-09-12T04:28:48.998Z,11.40
2022-09-12T04:33:55.917Z,11.40
2022-09-12T04:39:01.454Z,11.40
2022-09-12T04:44:07.402Z,11.60
2022-09-12T04:49:10.637Z,11.60
2022-09-12T04:54:17.719Z,11.60
2022-09-12T04:59:22.240Z,11.50
2022-09-12T05:04:25.489Z,11.50
2022-09-12T05:09:30.245Z,11.50
2022-09-12T05:14:33.967Z,11.40
2022-09-12T05:19:37.273Z,11.30
2022-09-12T05:24:47.297Z,11.30
2022-09-12T05:29:53.212Z,11.50
2022-09-12T05:34:56.447Z,11.60
2022-09-12T05:40:03.493Z,15.70
2022-09-12T05:45:08.700Z,11.90
2022-09-12T05:50:12.427Z,11.80
2022-09-12T05:55:17.143Z,12.10
2022-09-12T06:00:20.724Z,12.00
2022-09-12T06:05:24.889Z,7.50
2022-09-12T06:10:29.775Z,12.20
2022-09-12T06:15:34.204Z,12.50
2022-09-12T06:20:38.023Z,12.80
2022-09-12T06:25:48.537Z,13.10
2022-09-12T06:30:51.872Z,12.50
2022-09-12T06:35:55.115Z,12.30
2022-09-12T06:41:00.859Z,12.90
2022-09-12T06:46:04.761Z,12.70
2022-09-12T06:51:10.688Z,12.80
2022-09-12T06:56:17.662Z,13.10
2022-09-12T07:01:22.564Z,13.10
2022-09-12T07:06:31.660Z,13.40
2022-09-12T07:11:39.156Z,13.10
2022-09-12T07:16:43.203Z,12.70
2022-09-12T07:21:46.477Z,12.80
2022-09-12T07:26:51.080Z,12.70
2022-09-12T07:31:54.688Z,12.70
2022-09-12T07:36:58.149Z,12.90
2022-09-12T07:42:02.734Z,13.60
2022-09-12T07:47:06.315Z,14.10
2022-09-12T07:52:09.535Z,14.50
2022-09-12T07:57:15.504Z,14.70
2022-09-12T08:02:18.790Z,14.40
2022-09-12T08:07:22.055Z,13.80
2022-09-12T08:12:26.713Z,14.00
2022-09-12T08:17:30.137Z,14.70
2022-09-12T08:22:33.398Z,15.00
2022-09-12T08:27:38.132Z,14.40
2022-09-12T08:32:41.337Z,14.90
2022-09-12T08:37:44.611Z,14.10
2022-09-12T08:43:00.247Z,13.50
2022-09-12T08:48:05.928Z,14.30
2022-09-12T08:53:15.150Z,14.50
2022-09-12T08:58:22.798Z,15.10
2022-09-12T09:03:48.237Z,15.50
2022-09-12T09:09:01.954Z,15.40
2022-09-12T09:14:50.899Z,15.60
2022-09-12T09:20:00.985Z,15.70
2022-09-12T09:25:09.501Z,16.30
2022-09-12T09:30:18.773Z,16.70
2022-09-12T09:35:35.715Z,16.60
2022-09-12T09:40:47.714Z,16.80
2022-09-12T09:45:54.123Z,19.70
2022-09-12T09:51:01.925Z,17.40
2022-09-12T09:56:12.875Z,17.60
2022-09-12T10:01:19.557Z,18.00
2022-09-12T10:06:32.418Z,17.00
2022-09-12T10:11:36.094Z,17.40
2022-09-12T10:16:53.529Z,16.20
2022-09-12T10:21:57.929Z,17.40
2022-09-12T10:27:10.092Z,18.60
2022-09-12T10:32:23.357Z,19.70
2022-09-12T10:37:33.672Z,19.90
2022-09-12T10:42:48.760Z,19.80
2022-09-12T10:47:54.475Z,19.80
2022-09-12T10:53:15.016Z,18.20
2022-09-12T10:58:36.772Z,20.00
2022-09-12T11:03:58.211Z,23.30
2022-09-12T11:09:08.644Z,24.80
2022-09-12T11:14:32.911Z,23.70
2022-09-12T11:19:52.382Z,25.20
2022-09-12T11:25:22.432Z,23.10
2022-09-12T11:30:25.748Z,25.90
2022-09-12T11:35:32.169Z,24.60
2022-09-12T11:40:40.777Z,23.80
2022-09-12T11:45:46.347Z,24.90
2022-09-12T11:50:51.392Z,25.20
2022-09-12T11:56:00.619Z,26.70
2022-09-12T12:01:12.594Z,28.00
2022-09-12T12:06:20.401Z,28.30
2022-09-12T12:11:32.079Z,29.40
2022-09-12T12:16:39.712Z,30.00
2022-09-12T12:21:45.568Z,29.50
2022-09-12T12:27:01.105Z,29.20
2022-09-12T12:32:24.863Z,27.20
2022-09-12T12:37:51.254Z,28.80
2022-09-12T12:43:19.936Z,29.00
2022-09-12T12:48:23.269Z,29.10
2022-09-12T12:53:29.296Z,28.80
2022-09-12T12:58:36.396Z,29.40
2022-09-12T13:03:42.732Z,30.20
2022-09-12T13:08:59.946Z,28.70
2022-09-12T13:14:07.027Z,29.00
2022-09-12T13:19:18.582Z,29.20
2022-09-12T13:24:24.646Z,28.60
2022-09-12T13:29:29.318Z,28.20
2022-09-12T13:34:35.597Z,28.30
2022-09-12T13:39:47.959Z,28.20
2022-09-12T13:44:54.644Z,29.20
2022-09-12T13:49:59.177Z,31.10
2022-09-12T13:55:09.068Z,28.00
2022-09-12T14:00:19.388Z,27.00
2022-09-12T14:05:25.979Z,26.30
2022-09-12T14:10:35.055Z,24.80
2022-09-12T14:15:39.245Z,24.10
2022-09-12T14:20:42.983Z,23.30
2022-09-12T14:25:48.151Z,22.50
2022-09-12T14:31:03.565Z,23.30
2022-09-12T14:36:13.249Z,23.70
2022-09-12T14:41:25.828Z,23.20
2022-09-12T14:46:33.271Z,23.00
2022-09-12T14:51:41.009Z,23.40
2022-09-12T14:56:55.437Z,22.10
2022-09-12T15:02:23.009Z,21.50
2022-09-12T15:07:34.016Z,21.80
2022-09-12T15:12:38.601Z,22.10
2022-09-12T15:17:41.968Z,22.00
2022-09-12T15:22:45.320Z,22.50
2022-09-12T15:27:52.449Z,22.40
2022-09-12T15:32:56.068Z,22.90
2022-09-12T15:37:59.270Z,22.60
2022-09-12T15:43:04.217Z,22.30
2022-09-12T15:48:07.464Z,22.00
2022-09-12T15:53:16.202Z,22.20
2022-09-12T15:58:21.036Z,22.10
2022-09-12T16:03:26.593Z,21.60
2022-09-12T16:08:31.448Z,21.50
2022-09-12T16:13:36.191Z,21.30
2022-09-12T16:18:40.735Z,21.10
2022-09-12T16:23:44.191Z,21.10
2022-09-12T16:28:49.361Z,21.30
2022-09-12T16:33:52.969Z,22.90
2022-09-12T16:38:56.209Z,24.00
2022-09-12T16:44:00.876Z,23.90
2022-09-12T16:49:06.022Z,24.80
2022-09-12T16:54:09.265Z,25.30
2022-09-12T16:59:16.394Z,25.20
2022-09-12T17:04:23.333Z,24.80
2022-09-12T17:09:28.230Z,24.90
2022-09-12T17:14:32.931Z,23.80
2022-09-12T17:19:36.257Z,22.50
2022-09-12T17:24:40.530Z,21.80
2022-09-12T17:29:45.118Z,21.20
2022-09-12T17:34:48.340Z,20.30
2022-09-12T17:39:51.661Z,19.90
2022-09-12T17:44:59.256Z,19.30
2022-09-12T17:50:29.910Z,18.80
2022-09-12T17:55:25.767Z,18.40
2022-09-12T18:00:44.853Z,20.30
2022-09-12T18:05:48.512Z,17.40
2022-09-12T18:10:52.338Z,17.30
2022-09-12T18:16:03.124Z,17.20
2022-09-12T18:21:08.633Z,17.20
2022-09-12T18:26:13.461Z,21.20
2022-09-12T18:31:20.158Z,16.80
2022-09-12T18:36:23.958Z,16.50
2022-09-12T18:41:29.293Z,16.50
2022-09-12T18:46:35.416Z,16.20
2022-09-12T18:51:41.807Z,16.10
2022-09-12T18:56:45.905Z,15.90
2022-09-12T19:01:50.626Z,15.80
2022-09-12T19:06:54.118Z,15.80
2022-09-12T19:11:57.367Z,15.50
2022-09-12T19:17:02.119Z,15.50
2022-09-12T19:22:05.524Z,15.60
2022-09-12T19:27:08.898Z,15.40
2022-09-12T19:32:13.499Z,15.20
2022-09-12T19:37:16.790Z,15.10
2022-09-12T19:42:20.073Z,15.10
2022-09-12T19:47:25.249Z,14.90
2022-09-12T19:52:28.463Z,14.90
2022-09-12T19:57:31.742Z,14.80
2022-09-12T20:02:36.490Z,14.70
2022-09-12T20:07:40.144Z,14.50
2022-09-12T20:12:43.377Z,14.60
2022-09-12T20:17:48.019Z,14.40
2022-09-12T20:22:52.262Z,14.30
2022-09-12T20:27:59.937Z,14.30
2022-09-12T20:33:04.990Z,14.20
2022-09-12T20:38:08.569Z,14.10
2022-09-12T20:43:11.782Z,14.00
2022-09-12T20:48:16.437Z,14.00
2022-09-12T20:53:19.700Z,13.90
2022-09-12T20:58:23.953Z,13.80
2022-09-12T21:03:28.589Z,13.70
2022-09-12T21:08:32.823Z,13.60
2022-09-12T21:13:36.623Z,17.40
2022-09-12T21:18:41.455Z,13.60
2022-09-12T21:23:44.705Z,13.60
2022-09-12T21:28:48.988Z,13.50
2022-09-12T21:33:53.773Z,13.50
2022-09-12T21:38:59.458Z,13.40
2022-09-12T21:44:03.177Z,13.40
2022-09-12T21:49:07.996Z,13.30
2022-09-12T21:54:11.201Z,13.20
2022-09-12T21:59:14.463Z,13.10
2022-09-12T22:04:19.182Z,13.00
2022-09-12T22:09:22.404Z,12.90
2022-09-12T22:14:25.613Z,12.90
2022-09-12T22:19:30.231Z,17.50
2022-09-12T22:24:33.486Z,12.90
2022-09-12T22:29:37.261Z,12.90
2022-09-12T22:34:41.936Z,12.70
2022-09-12T22:39:45.179Z,12.80
2022-09-12T22:44:48.430Z,12.70
2022-09-12T22:49:53.265Z,12.60
2022-09-12T22:54:57.283Z,12.50
2022-09-12T23:00:00.516Z,12.40
2022-09-12T23:05:06.137Z,12.50
2022-09-12T23:10:10.732Z,12.40
2022-09-12T23:15:14.894Z,12.50
2022-09-12T23:20:19.570Z,12.40
2022-09-12T23:25:23.649Z,12.40
2022-09-12T23:30:26.938Z,12.30
2022-09-12T23:35:31.699Z,12.40
2022-09-12T23:40:34.942Z,12.30
2022-09-12T23:45:38.240Z,12.70
2022-09-12T23:50:44.539Z,12.30
2022-09-12T23:55:48.389Z,12.20
